createdAt,value
2022-08-31T00:00:15.324Z,6.53
2022-08-31T00:03:19.883Z,6.32
2022-08-31T00:05:47.689Z,5.13
2022-08-31T00:08:16.236Z,5.43
2022-08-31T00:10:46.431Z,4.00
2022-08-31T00:16:55.742Z,5.15
2022-08-31T00:19:23.241Z,6.97
2022-08-31T00:21:50.548Z,8.35
2022-08-31T00:24:18.003Z,6.47
2022-08-31T00:26:45.314Z,5.15
2022-08-31T00:29:13.312Z,5.15
2022-08-31T00:31:41.028Z,5.03
2022-08-31T00:34:08.474Z,5.07
2022-08-31T00:36:35.877Z,6.55
2022-08-31T00:39:05.717Z,4.07
2022-08-31T00:41:36.801Z,6.53
2022-08-31T00:44:07.840Z,6.00
2022-08-31T00:46:38.408Z,6.22
2022-08-31T00:49:10.185Z,4.38
2022-08-31T00:51:42.114Z,3.60
2022-08-31T00:54:12.753Z,3.38
2022-08-31T00:56:41.308Z,4.63
2022-08-31T00:59:08.565Z,5.93
2022-08-31T01:01:36.131Z,4.38
2022-08-31T01:04:03.640Z,4.25
2022-08-31T01:06:31.369Z,6.00
2022-08-31T01:09:01.386Z,5.88
2022-08-31T01:11:29.231Z,3.30
2022-08-31T01:13:56.760Z,5.30
2022-08-31T01:16:46.005Z,5.05
2022-08-31T01:19:33.752Z,5.80
2022-08-31T01:22:07.317Z,7.03
2022-08-31T01:24:34.740Z,5.20
2022-08-31T01:27:04.763Z,3.72
2022-08-31T01:29:32.585Z,3.90
2022-08-31T01:31:59.959Z,5.10
2022-08-31T01:34:27.614Z,5.40
2022-08-31T01:36:55.714Z,4.70
2022-08-31T01:39:23.235Z,4.85
2022-08-31T01:41:51.563Z,5.90
2022-08-31T01:44:22.266Z,6.60
2022-08-31T01:46:51.614Z,5.72
2022-08-31T01:49:23.023Z,5.57
2022-08-31T01:51:51.974Z,5.85
2022-08-31T01:54:20.359Z,4.90
2022-08-31T01:56:49.699Z,4.20
2022-08-31T01:59:28.921Z,4.38
2022-08-31T02:02:05.918Z,6.00
2022-08-31T02:04:33.214Z,6.93
2022-08-31T02:07:01.243Z,4.97
2022-08-31T02:09:30.150Z,4.57
2022-08-31T02:11:59.102Z,5.43
2022-08-31T02:14:26.517Z,7.53
2022-08-31T02:16:54.500Z,4.40
2022-08-31T02:19:21.746Z,4.30
2022-08-31T02:21:49.889Z,8.23
2022-08-31T02:24:18.230Z,6.35
2022-08-31T02:26:45.619Z,4.03
2022-08-31T02:29:12.903Z,4.43
2022-08-31T02:31:40.512Z,6.03
2022-08-31T02:34:07.799Z,6.90
2022-08-31T02:36:35.830Z,6.85
2022-08-31T02:39:06.074Z,7.13
2022-08-31T02:41:34.896Z,5.22
2022-08-31T02:44:02.675Z,4.72
2022-08-31T02:46:31.129Z,4.50
2022-08-31T02:49:24.698Z,4.45
2022-08-31T02:51:54.757Z,5.68
2022-08-31T02:54:22.460Z,4.85
2022-08-31T02:56:49.663Z,5.05
2022-08-31T02:59:20.744Z,5.72
2022-08-31T03:01:48.617Z,7.15
2022-08-31T03:04:17.154Z,5.35
2022-08-31T03:06:47.869Z,4.80
2022-08-31T03:09:16.097Z,3.92
2022-08-31T03:11:44.122Z,4.97
2022-08-31T03:14:12.463Z,4.22
2022-08-31T03:16:41.068Z,5.93
2022-08-31T03:19:09.422Z,4.95
2022-08-31T03:21:36.994Z,5.72
2022-08-31T03:24:04.539Z,5.75
2022-08-31T03:26:31.807Z,6.82
2022-08-31T03:28:59.270Z,5.75
2022-08-31T03:31:58.752Z,5.45
2022-08-31T03:34:26.986Z,6.47
2022-08-31T03:36:54.172Z,5.45
2022-08-31T03:39:21.715Z,5.30
2022-08-31T03:41:49.485Z,8.23
2022-08-31T03:44:20.237Z,5.50
2022-08-31T03:46:50.206Z,4.53
2022-08-31T03:49:20.924Z,7.35
2022-08-31T03:52:05.241Z,5.95
2022-08-31T03:54:41.123Z,5.75
2022-08-31T03:57:08.402Z,12.23
2022-08-31T03:59:36.038Z,4.00
2022-08-31T04:02:18.269Z,6.32
2022-08-31T04:05:04.265Z,4.68
2022-08-31T04:07:58.123Z,5.20
2022-08-31T04:10:45.673Z,6.30
2022-08-31T04:13:31.667Z,6.20
2022-08-31T04:16:19.782Z,7.20
2022-08-31T04:19:20.200Z,6.07
2022-08-31T04:22:08.572Z,5.63
2022-08-31T04:24:40.577Z,6.50
2022-08-31T04:27:07.907Z,8.55
2022-08-31T04:29:35.295Z,5.47
2022-08-31T04:32:03.420Z,5.72
2022-08-31T04:34:30.734Z,8.82
2022-08-31T04:36:58.139Z,7.95
2022-08-31T04:39:25.987Z,5.95
2022-08-31T04:41:58.934Z,4.60
2022-08-31T04:44:28.757Z,4.07
2022-08-31T04:46:58.818Z,5.55
2022-08-31T04:49:26.166Z,5.78
2022-08-31T04:51:54.294Z,5.60
2022-08-31T04:54:21.923Z,5.63
2022-08-31T04:56:49.166Z,5.93
2022-08-31T04:59:27.634Z,4.28
2022-08-31T05:02:13.636Z,3.87
2022-08-31T05:04:45.577Z,3.65
2022-08-31T05:07:12.933Z,5.50
2022-08-31T05:09:40.190Z,4.38
2022-08-31T05:12:07.948Z,6.43
2022-08-31T05:14:35.960Z,4.93
2022-08-31T05:17:14.935Z,6.50
2022-08-31T05:19:43.517Z,5.72
2022-08-31T05:22:13.961Z,7.35
2022-08-31T05:24:43.761Z,5.38
2022-08-31T05:27:12.959Z,5.45
2022-08-31T05:29:41.363Z,7.18
2022-08-31T05:32:27.474Z,6.18
2022-08-31T05:34:56.544Z,5.45
2022-08-31T05:37:24.350Z,5.38
2022-08-31T05:39:52.053Z,4.60
2022-08-31T05:42:21.203Z,4.82
2022-08-31T05:44:48.490Z,3.58
2022-08-31T05:47:16.873Z,2.92
2022-08-31T05:49:45.108Z,4.05
2022-08-31T05:52:17.185Z,6.30
2022-08-31T05:54:44.522Z,7.35
2022-08-31T05:57:12.081Z,5.20
2022-08-31T05:59:40.185Z,4.50
2022-08-31T06:02:11.743Z,4.00
2022-08-31T06:04:40.253Z,4.10
2022-08-31T06:07:08.209Z,5.13
2022-08-31T06:09:41.967Z,6.53
2022-08-31T06:12:10.495Z,3.47
2022-08-31T06:14:38.967Z,4.38
2022-08-31T06:17:06.965Z,8.52
2022-08-31T06:19:34.585Z,3.70
2022-08-31T06:22:01.816Z,5.00
2022-08-31T06:24:31.811Z,6.22
2022-08-31T06:27:02.766Z,4.03
2022-08-31T06:29:34.720Z,3.40
2022-08-31T06:32:08.006Z,5.00
2022-08-31T06:34:39.381Z,3.40
2022-08-31T06:37:08.291Z,4.85
2022-08-31T06:40:15.742Z,2.83
2022-08-31T06:42:57.320Z,4.35
2022-08-31T06:45:29.909Z,5.13
2022-08-31T06:48:20.276Z,4.43
2022-08-31T06:50:56.747Z,3.05
2022-08-31T06:53:24.180Z,2.45
2022-08-31T06:56:25.769Z,3.22
2022-08-31T06:59:13.709Z,2.55
2022-08-31T07:02:04.075Z,3.15
2022-08-31T07:04:38.673Z,2.08
2022-08-31T07:07:09.241Z,3.40
2022-08-31T07:09:39.867Z,5.78
2022-08-31T07:12:08.215Z,1.88
2022-08-31T07:14:36.453Z,4.60
2022-08-31T07:17:04.784Z,2.45
2022-08-31T07:19:34.081Z,3.53
2022-08-31T07:22:06.973Z,1.75
2022-08-31T07:24:35.773Z,2.92
2022-08-31T07:27:10.283Z,3.25
2022-08-31T07:29:46.573Z,2.25
2022-08-31T07:32:17.599Z,2.53
2022-08-31T07:34:45.836Z,1.55
2022-08-31T07:37:57.962Z,3.28
2022-08-31T07:40:48.798Z,2.47
2022-08-31T07:43:17.498Z,3.20
2022-08-31T07:45:46.175Z,2.90
2022-08-31T07:48:19.747Z,2.83
2022-08-31T07:50:58.396Z,1.88
2022-08-31T07:53:42.930Z,2.38
2022-08-31T07:56:34.676Z,2.63
2022-08-31T07:59:15.213Z,2.92
2022-08-31T08:01:45.263Z,2.67
2022-08-31T08:04:25.572Z,4.03
2022-08-31T08:07:12.889Z,2.05
2022-08-31T08:10:14.559Z,2.05
2022-08-31T08:13:07.114Z,5.00
2022-08-31T08:15:46.607Z,2.80
2022-08-31T08:18:37.747Z,1.77
2022-08-31T08:21:05.683Z,2.38
2022-08-31T08:23:33.785Z,2.67
2022-08-31T08:26:21.341Z,2.15
2022-08-31T08:29:06.380Z,3.83
2022-08-31T08:31:38.590Z,2.78
2022-08-31T08:34:06.876Z,1.48
2022-08-31T08:36:37.353Z,3.15
2022-08-31T08:39:08.076Z,2.42
2022-08-31T08:41:40.413Z,2.08
2022-08-31T08:44:18.073Z,3.33
2022-08-31T08:46:52.921Z,3.25
2022-08-31T08:49:28.746Z,2.00
2022-08-31T08:52:03.816Z,1.42
2022-08-31T08:54:41.523Z,2.03
2022-08-31T08:57:15.085Z,3.05
2022-08-31T08:59:46.907Z,2.05
2022-08-31T09:02:42.250Z,1.88
2022-08-31T09:05:43.458Z,1.95
2022-08-31T09:08:51.913Z,1.42
2022-08-31T09:11:27.435Z,1.67
2022-08-31T09:14:08.254Z,1.90
2022-08-31T09:16:48.083Z,1.55
2022-08-31T09:19:18.033Z,2.13
2022-08-31T09:21:52.364Z,2.40
2022-08-31T09:24:27.603Z,2.58
2022-08-31T09:27:18.796Z,2.40
2022-08-31T09:30:00.917Z,2.83
2022-08-31T09:32:32.746Z,2.65
2022-08-31T09:35:08.208Z,2.40
2022-08-31T09:37:45.042Z,0.93
2022-08-31T09:40:24.305Z,1.75
2022-08-31T09:43:15.720Z,2.78
2022-08-31T09:45:53.802Z,3.22
2022-08-31T09:48:52.043Z,3.58
2022-08-31T09:51:29.712Z,3.25
2022-08-31T09:54:36.567Z,2.53
2022-08-31T09:57:08.086Z,2.17
2022-08-31T09:59:41.987Z,1.88
2022-08-31T10:02:26.833Z,1.50
2022-08-31T10:04:58.372Z,1.23
2022-08-31T10:07:38.136Z,2.42
2022-08-31T10:10:31.283Z,4.10
2022-08-31T10:13:03.942Z,2.95
2022-08-31T10:15:48.593Z,1.30
2022-08-31T10:18:32.043Z,3.38
2022-08-31T10:21:09.026Z,2.83
2022-08-31T10:23:54.290Z,3.22
2022-08-31T10:26:36.664Z,1.63
2022-08-31T10:29:23.474Z,2.92
2022-08-31T10:31:56.525Z,2.10
2022-08-31T10:34:49.295Z,2.28
2022-08-31T10:38:01.183Z,1.27
2022-08-31T10:40:32.464Z,3.25
2022-08-31T10:43:22.037Z,1.52
2022-08-31T10:45:53.016Z,2.08
2022-08-31T10:48:23.526Z,1.77
2022-08-31T10:51:29.066Z,1.67
2022-08-31T10:54:35.769Z,2.67
2022-08-31T10:57:21.589Z,1.73
2022-08-31T10:59:58.805Z,2.47
2022-08-31T11:03:20.617Z,2.13
2022-08-31T11:05:56.258Z,1.77
2022-08-31T11:08:49.092Z,3.40
2022-08-31T11:11:31.531Z,2.08
2022-08-31T11:14:37.447Z,2.03
2022-08-31T11:17:27.176Z,3.25
2022-08-31T11:20:14.664Z,1.20
2022-08-31T11:22:50.573Z,1.25
2022-08-31T11:25:33.783Z,1.63
2022-08-31T11:28:09.345Z,3.60
2022-08-31T11:30:43.003Z,6.55
2022-08-31T11:33:20.508Z,2.83
2022-08-31T11:36:05.368Z,2.72
2022-08-31T11:39:15.258Z,2.83
2022-08-31T11:41:47.307Z,3.08
2022-08-31T11:44:39.883Z,6.68
2022-08-31T11:47:29.796Z,2.70
2022-08-31T11:50:05.710Z,3.28
2022-08-31T11:52:48.538Z,2.15
2022-08-31T11:55:21.212Z,2.45
2022-08-31T11:58:07.268Z,2.03
2022-08-31T12:01:01.792Z,6.03
2022-08-31T12:03:40.364Z,4.47
2022-08-31T12:06:33.882Z,1.33
2022-08-31T12:09:23.633Z,1.05
2022-08-31T12:12:44.667Z,1.42
2022-08-31T12:15:20.811Z,2.15
2022-08-31T12:18:13.130Z,2.42
2022-08-31T12:21:32.539Z,1.67
2022-08-31T12:24:18.694Z,1.58
2022-08-31T12:26:54.564Z,1.38
2022-08-31T12:29:36.389Z,2.80
2022-08-31T12:32:43.343Z,2.80
2022-08-31T12:35:21.180Z,3.72
2022-08-31T12:37:59.218Z,2.28
2022-08-31T12:40:36.039Z,1.30
2022-08-31T12:43:13.601Z,1.73
2022-08-31T12:45:58.916Z,1.20
2022-08-31T12:48:52.856Z,1.67
2022-08-31T12:51:22.992Z,1.42
2022-08-31T12:53:50.321Z,1.25
2022-08-31T12:56:26.349Z,2.65
2022-08-31T13:00:00.034Z,7.03
2022-08-31T13:02:30.822Z,4.50
2022-08-31T13:04:58.355Z,3.35
2022-08-31T13:07:35.677Z,1.30
2022-08-31T13:10:08.673Z,3.22
2022-08-31T13:12:36.928Z,2.22
2022-08-31T13:15:09.583Z,2.83
2022-08-31T13:17:42.116Z,3.35
2022-08-31T13:20:09.739Z,2.50
2022-08-31T13:22:41.447Z,3.22
2022-08-31T13:25:19.420Z,1.95
2022-08-31T13:27:51.096Z,2.97
2022-08-31T13:30:25.627Z,2.33
2022-08-31T13:32:54.800Z,3.17
2022-08-31T13:35:37.092Z,2.28
2022-08-31T13:38:05.780Z,4.85
2022-08-31T13:40:37.594Z,0.82
2022-08-31T13:43:10.716Z,0.93
2022-08-31T13:45:50.534Z,1.13
2022-08-31T13:48:29.167Z,1.30
2022-08-31T13:51:14.783Z,0.80
2022-08-31T13:53:46.640Z,1.88
2022-08-31T13:56:49.779Z,1.20
2022-08-31T13:59:39.493Z,1.40
2022-08-31T14:02:36.352Z,2.63
2022-08-31T14:05:08.091Z,4.25
2022-08-31T14:07:46.781Z,3.22
2022-08-31T14:10:20.156Z,3.33
2022-08-31T14:12:53.966Z,3.33
2022-08-31T14:15:27.284Z,2.97
2022-08-31T14:21:21.102Z,1.83
2022-08-31T14:23:53.907Z,2.47
2022-08-31T14:26:26.416Z,3.10
2022-08-31T14:28:57.661Z,2.38
2022-08-31T14:31:37.255Z,4.13
2022-08-31T14:34:11.645Z,1.73
2022-08-31T14:36:52.973Z,2.33
2022-08-31T14:39:24.349Z,1.73
2022-08-31T14:41:54.937Z,2.30
2022-08-31T14:44:27.476Z,2.28
2022-08-31T14:46:54.886Z,1.83
2022-08-31T14:49:23.167Z,3.63
2022-08-31T14:51:50.833Z,2.95
2022-08-31T14:54:18.241Z,2.92
2022-08-31T14:56:50.320Z,2.40
2022-08-31T14:59:21.647Z,1.83
2022-08-31T15:01:50.733Z,3.22
2022-08-31T15:04:21.086Z,2.47
2022-08-31T15:06:53.948Z,2.80
2022-08-31T15:09:21.884Z,1.65
2022-08-31T15:11:51.406Z,2.78
2022-08-31T15:14:18.736Z,1.42
2022-08-31T15:16:49.573Z,1.52
2022-08-31T15:19:17.063Z,3.17
2022-08-31T15:21:58.686Z,1.52
2022-08-31T15:24:30.789Z,2.25
2022-08-31T15:26:58.493Z,2.55
2022-08-31T15:29:30.323Z,2.97
2022-08-31T15:31:59.054Z,1.80
2022-08-31T15:34:30.269Z,3.42
2022-08-31T15:37:02.278Z,2.85
2022-08-31T15:39:40.675Z,2.67
2022-08-31T15:42:09.438Z,2.30
2022-08-31T15:44:42.371Z,1.40
2022-08-31T15:47:29.493Z,3.88
2022-08-31T15:49:58.275Z,2.15
2022-08-31T15:52:27.592Z,1.15
2022-08-31T15:54:55.234Z,1.85
2022-08-31T15:57:23.075Z,2.42
2022-08-31T15:59:50.926Z,2.13
2022-08-31T16:02:20.487Z,2.33
2022-08-31T16:04:50.671Z,2.60
2022-08-31T16:07:19.201Z,2.28
2022-08-31T16:09:46.365Z,2.90
2022-08-31T16:12:16.374Z,2.05
2022-08-31T16:14:46.624Z,1.90
2022-08-31T16:17:19.167Z,2.35
2022-08-31T16:19:48.170Z,1.92
2022-08-31T16:22:17.272Z,2.47
2022-08-31T16:24:45.618Z,2.20
2022-08-31T16:27:16.264Z,2.45
2022-08-31T16:29:44.216Z,2.40
2022-08-31T16:32:12.087Z,3.10
2022-08-31T16:34:40.426Z,2.47
2022-08-31T16:37:08.088Z,2.88
2022-08-31T16:39:37.149Z,3.88
2022-08-31T16:42:05.775Z,1.90
2022-08-31T16:44:36.460Z,1.98
2022-08-31T16:47:06.789Z,2.60
2022-08-31T16:49:36.144Z,4.03
2022-08-31T16:52:11.022Z,3.95
2022-08-31T16:54:45.104Z,4.75
2022-08-31T16:57:14.771Z,5.00
2022-08-31T16:59:42.511Z,5.55
2022-08-31T17:02:13.393Z,4.28
2022-08-31T17:04:58.080Z,4.18
2022-08-31T17:07:25.661Z,4.22
2022-08-31T17:09:57.678Z,3.75
2022-08-31T17:12:27.473Z,5.57
2022-08-31T17:14:56.106Z,4.88
2022-08-31T17:17:25.629Z,3.25
2022-08-31T17:19:55.815Z,3.78
2022-08-31T17:22:32.236Z,4.35
2022-08-31T17:25:03.783Z,4.45
2022-08-31T17:27:33.408Z,4.70
2022-08-31T17:30:05.478Z,4.80
2022-08-31T17:32:36.606Z,5.88
2022-08-31T17:35:17.589Z,5.25
2022-08-31T17:37:45.857Z,5.70
2022-08-31T17:40:14.316Z,4.47
2022-08-31T17:42:42.204Z,5.85
2022-08-31T17:45:10.333Z,5.50
2022-08-31T17:47:37.827Z,3.92
2022-08-31T17:50:07.196Z,4.00
2022-08-31T17:52:35.067Z,4.57
2022-08-31T17:55:02.406Z,4.28
2022-08-31T17:57:29.768Z,4.13
2022-08-31T17:59:57.178Z,5.03
2022-08-31T18:02:31.281Z,4.45
2022-08-31T18:04:59.944Z,4.63
2022-08-31T18:07:27.700Z,4.13
2022-08-31T18:09:55.032Z,5.47
2022-08-31T18:12:25.544Z,6.00
2022-08-31T18:14:58.187Z,6.15
2022-08-31T18:17:26.609Z,5.57
2022-08-31T18:19:55.374Z,6.35
2022-08-31T18:22:22.627Z,7.07
2022-08-31T18:24:50.138Z,6.90
2022-08-31T18:27:17.473Z,6.88
2022-08-31T18:29:45.398Z,5.38
2022-08-31T18:32:13.658Z,7.10
2022-08-31T18:34:47.434Z,5.93
2022-08-31T18:37:16.391Z,7.63
2022-08-31T18:40:05.366Z,5.78
2022-08-31T18:42:57.006Z,5.75
2022-08-31T18:45:25.797Z,6.03
2022-08-31T18:50:44.611Z,6.32
2022-08-31T18:53:29.014Z,5.40
2022-08-31T18:55:59.560Z,7.07
2022-08-31T18:58:27.348Z,6.15
2022-08-31T19:00:57.536Z,6.28
2022-08-31T19:03:27.617Z,6.95
2022-08-31T19:05:56.753Z,6.13
2022-08-31T19:08:26.093Z,4.57
2022-08-31T19:10:56.317Z,8.27
2022-08-31T19:13:31.259Z,5.28
2022-08-31T19:16:02.298Z,4.55
2022-08-31T19:18:33.600Z,5.53
2022-08-31T19:21:10.928Z,8.10
2022-08-31T19:23:38.415Z,5.45
2022-08-31T19:26:05.760Z,6.47
2022-08-31T19:28:32.950Z,6.82
2022-08-31T19:31:00.440Z,5.57
2022-08-31T19:33:28.163Z,6.50
2022-08-31T19:36:04.616Z,6.13
2022-08-31T19:38:32.774Z,6.65
2022-08-31T19:41:01.285Z,29.10
2022-08-31T19:43:53.596Z,9.68
2022-08-31T19:46:20.861Z,6.32
2022-08-31T19:48:49.685Z,8.68
2022-08-31T19:51:20.503Z,7.60
2022-08-31T19:53:49.881Z,6.93
2022-08-31T19:56:23.398Z,5.13
2022-08-31T19:58:53.238Z,7.50
2022-08-31T20:01:25.420Z,8.20
2022-08-31T20:03:55.758Z,8.45
2022-08-31T20:06:27.723Z,6.88
2022-08-31T20:08:55.277Z,6.18
2022-08-31T20:11:26.569Z,6.03
2022-08-31T20:13:56.432Z,6.88
2022-08-31T20:16:33.242Z,6.07
2022-08-31T20:19:04.152Z,5.75
2022-08-31T20:21:34.827Z,5.72
2022-08-31T20:24:06.108Z,9.60
2022-08-31T20:26:47.429Z,5.28
2022-08-31T20:29:20.554Z,7.88
2022-08-31T20:31:50.710Z,5.53
2022-08-31T20:34:20.065Z,6.72
2022-08-31T20:36:50.156Z,6.20
2022-08-31T20:39:18.805Z,7.50
2022-08-31T20:41:48.528Z,8.85
2022-08-31T20:44:22.197Z,6.85
2022-08-31T20:47:23.371Z,6.68
2022-08-31T20:49:56.996Z,5.55
2022-08-31T20:52:27.555Z,5.30
2022-08-31T20:55:02.298Z,5.63
2022-08-31T20:57:32.333Z,5.82
2022-08-31T21:00:02.987Z,6.20
2022-08-31T21:02:31.969Z,7.07
2022-08-31T21:05:15.179Z,6.00
2022-08-31T21:07:43.081Z,5.88
2022-08-31T21:10:10.953Z,5.72
2022-08-31T21:12:38.248Z,4.93
2022-08-31T21:15:12.378Z,7.40
2022-08-31T21:17:40.686Z,5.70
2022-08-31T21:20:08.360Z,6.35
2022-08-31T21:22:35.660Z,5.75
2022-08-31T21:25:04.553Z,5.30
2022-08-31T21:27:32.159Z,6.30
2022-08-31T21:29:59.745Z,4.55
2022-08-31T21:32:27.056Z,5.30
2022-08-31T21:34:57.908Z,4.68
2022-08-31T21:37:25.431Z,6.53
2022-08-31T21:39:57.671Z,3.65
2022-08-31T21:42:25.491Z,5.18
2022-08-31T21:44:53.220Z,4.18
2022-08-31T21:47:20.412Z,5.47
2022-08-31T21:49:49.851Z,5.32
2022-08-31T21:52:17.454Z,4.78
2022-08-31T21:54:46.352Z,5.70
2022-08-31T21:57:15.728Z,3.38
2022-08-31T21:59:42.899Z,5.45
2022-08-31T22:02:11.887Z,3.47
2022-08-31T22:04:43.629Z,3.67
2022-08-31T22:07:11.901Z,6.82
2022-08-31T22:09:39.118Z,3.72
2022-08-31T22:12:07.459Z,4.50
2022-08-31T22:14:38.862Z,3.42
2022-08-31T22:17:07.095Z,8.60
2022-08-31T22:19:38.189Z,4.72
2022-08-31T22:22:12.567Z,3.22
2022-08-31T22:24:41.495Z,4.28
2022-08-31T22:27:13.603Z,4.72
2022-08-31T22:29:41.010Z,3.55
2022-08-31T22:32:13.101Z,4.97
2022-08-31T22:34:41.597Z,6.15
2022-08-31T22:37:09.515Z,4.35
2022-08-31T22:39:37.108Z,3.78
2022-08-31T22:42:05.026Z,6.07
2022-08-31T22:44:35.548Z,5.35
2022-08-31T22:47:04.436Z,3.50
2022-08-31T22:49:31.811Z,4.68
2022-08-31T22:51:59.136Z,2.83
2022-08-31T22:54:26.909Z,3.17
2022-08-31T22:56:54.764Z,3.70
2022-08-31T22:59:28.693Z,4.95
2022-08-31T23:02:02.004Z,2.85
2022-08-31T23:04:33.326Z,5.07
2022-08-31T23:07:04.548Z,4.88
2022-08-31T23:09:33.980Z,5.57
2022-08-31T23:12:04.017Z,4.50
2022-08-31T23:14:32.785Z,3.80
2022-08-31T23:17:02.442Z,5.50
2022-08-31T23:19:40.298Z,4.53
2022-08-31T23:22:10.997Z,4.53
2022-08-31T23:24:46.369Z,3.70
2022-08-31T23:27:19.841Z,6.95
2022-08-31T23:29:52.665Z,4.25
2022-08-31T23:32:22.198Z,4.50
2022-08-31T23:34:52.628Z,3.70
2022-08-31T23:37:25.705Z,4.65
2022-08-31T23:39:54.695Z,6.57
2022-08-31T23:42:23.635Z,6.32
2022-08-31T23:44:51.554Z,4.55
2022-08-31T23:47:29.530Z,6.75
2022-08-31T23:49:58.167Z,4.95
2022-08-31T23:52:27.951Z,4.53
2022-08-31T23:54:59.395Z,4.55
2022-08-31T23:57:32.501Z,3.55
